createdAt,value
2018-12-11T00:00:25.862Z,99071.44
2018-12-11T00:02:56.126Z,99072.47
2018-12-11T00:05:26.247Z,99077.20
2018-12-11T00:07:56.902Z,99085.09
2018-12-11T00:10:27.032Z,99075.66
2018-12-11T00:12:57.184Z,99075.50
2018-12-11T00:15:27.051Z,99073.34
2018-12-11T00:17:57.082Z,99065.25
2018-12-11T00:20:27.811Z,99068.78
2018-12-11T00:22:58.277Z,99032.00
2018-12-11T00:25:28.442Z,99068.58
2018-12-11T00:27:58.430Z,99065.00
2018-12-11T00:30:28.294Z,99067.31
2018-12-11T00:32:58.630Z,99068.05
2018-12-11T00:35:28.784Z,99048.13
2018-12-11T00:37:58.638Z,99027.16
2018-12-11T00:40:28.614Z,99074.52
2018-12-11T00:42:58.721Z,99054.55
2018-12-11T00:45:29.388Z,99053.29
2018-12-11T00:47:59.490Z,99055.77
2018-12-11T00:50:29.613Z,99062.39
2018-12-11T00:52:59.567Z,99064.70
2018-12-11T00:55:29.706Z,99135.22
2018-12-11T00:58:00.419Z,99060.44
2018-12-11T01:00:30.764Z,99062.36
2018-12-11T01:03:00.972Z,99035.98
2018-12-11T01:05:30.974Z,99046.57
2018-12-11T01:08:01.392Z,99055.97
2018-12-11T01:10:32.433Z,99054.88
2018-12-11T01:13:02.549Z,99050.65
2018-12-11T01:15:33.099Z,99058.08
2018-12-11T01:18:03.391Z,99056.22
2018-12-11T01:20:33.387Z,99064.87
2018-12-11T01:23:03.150Z,99059.36
2018-12-11T01:25:33.956Z,99054.61
2018-12-11T01:28:04.070Z,99062.71
2018-12-11T01:30:34.543Z,99065.08
2018-12-11T01:33:04.090Z,99061.72
2018-12-11T01:35:34.110Z,99063.49
2018-12-11T01:38:04.764Z,99065.27
2018-12-11T01:40:34.342Z,99069.20
2018-12-11T01:43:04.298Z,99058.48
2018-12-11T01:45:34.715Z,99061.63
2018-12-11T01:48:04.844Z,99060.95
2018-12-11T01:50:34.874Z,99065.47
2018-12-11T01:53:05.323Z,99064.92
2018-12-11T01:55:35.294Z,99086.23
2018-12-11T01:58:05.522Z,99065.37
2018-12-11T02:00:35.883Z,99073.03
2018-12-11T02:03:05.987Z,99038.27
2018-12-11T02:05:35.958Z,99045.68
2018-12-11T02:08:05.889Z,99066.85
2018-12-11T02:10:36.099Z,99073.30
2018-12-11T02:13:06.254Z,99065.42
2018-12-11T02:15:36.770Z,99058.77
2018-12-11T02:18:06.704Z,99066.41
2018-12-11T02:20:37.618Z,99073.09
2018-12-11T02:23:21.127Z,99057.01
2018-12-11T02:25:51.206Z,99072.36
2018-12-11T02:28:21.454Z,99040.22
2018-12-11T02:30:51.941Z,99072.80
2018-12-11T02:33:22.026Z,99051.98
2018-12-11T02:35:51.987Z,99033.16
2018-12-11T02:38:22.451Z,99057.50
2018-12-11T02:40:52.467Z,99056.72
2018-12-11T02:43:22.586Z,99018.37
2018-12-11T02:45:53.033Z,99062.17
2018-12-11T02:48:23.844Z,99061.34
2018-12-11T02:50:53.959Z,99061.34
2018-12-11T02:53:24.021Z,99068.58
2018-12-11T02:55:54.510Z,99075.90
2018-12-11T02:58:25.330Z,99060.11
2018-12-11T03:00:55.376Z,99054.95
2018-12-11T03:03:25.754Z,99056.33
2018-12-11T03:05:55.819Z,99050.83
2018-12-11T03:08:25.836Z,99056.33
2018-12-11T03:10:56.230Z,99060.86
2018-12-11T03:13:26.968Z,99062.42
2018-12-11T03:15:56.978Z,99063.56
2018-12-11T03:18:27.433Z,99055.09
2018-12-11T03:20:57.435Z,99068.08
2018-12-11T03:23:27.434Z,99064.39
2018-12-11T03:25:57.856Z,99069.35
2018-12-11T03:28:27.878Z,99069.56
2018-12-11T03:30:58.518Z,99074.52
2018-12-11T03:33:28.925Z,99117.37
2018-12-11T03:35:59.850Z,98963.13
2018-12-11T03:38:30.030Z,99087.02
2018-12-11T03:41:00.746Z,99083.52
2018-12-11T03:43:31.572Z,99108.76
2018-12-11T03:46:01.809Z,99100.60
2018-12-11T03:48:32.409Z,99095.53
2018-12-11T03:51:02.431Z,99101.25
2018-12-11T03:53:32.650Z,99099.55
2018-12-11T03:56:03.310Z,99098.66
2018-12-11T03:58:33.426Z,99094.89
2018-12-11T04:01:03.664Z,99094.14
2018-12-11T04:03:33.652Z,99108.30
2018-12-11T04:06:04.161Z,99091.88
2018-12-11T04:08:35.014Z,98915.59
2018-12-11T04:11:05.355Z,99098.66
2018-12-11T04:13:35.006Z,99104.33
2018-12-11T04:16:05.243Z,99103.34
2018-12-11T04:18:34.847Z,99112.39
2018-12-11T04:21:05.271Z,99113.53
2018-12-11T04:23:35.524Z,99078.81
2018-12-11T04:26:05.712Z,99047.97
2018-12-11T04:28:36.254Z,99121.16
2018-12-11T04:31:06.324Z,99117.77
2018-12-11T04:33:36.618Z,99116.23
2018-12-11T04:36:06.518Z,99111.03
2018-12-11T04:38:36.728Z,99107.28
2018-12-11T04:41:06.777Z,99104.14
2018-12-11T04:43:37.231Z,99103.36
2018-12-11T04:46:07.917Z,98998.16
2018-12-11T04:51:12.837Z,99112.17
2018-12-11T04:53:43.038Z,99113.11
2018-12-11T04:56:13.135Z,99118.80
2018-12-11T04:58:42.994Z,99055.45
2018-12-11T05:01:13.533Z,99140.45
2018-12-11T05:03:43.598Z,99127.71
2018-12-11T05:06:13.300Z,99122.64
2018-12-11T05:08:43.081Z,99126.04
2018-12-11T05:14:02.650Z,99129.62
2018-12-11T05:16:32.751Z,99125.18
2018-12-11T05:19:03.008Z,99132.55
2018-12-11T05:21:33.189Z,99130.88
2018-12-11T05:24:03.230Z,99109.41
2018-12-11T05:26:33.637Z,99143.55
2018-12-11T05:29:03.741Z,99133.70
2018-12-11T05:31:33.308Z,99134.69
2018-12-11T05:34:03.392Z,99136.02
2018-12-11T05:36:33.296Z,99137.84
2018-12-11T05:39:03.369Z,99069.74
2018-12-11T05:41:34.262Z,99112.53
2018-12-11T05:44:04.409Z,99131.75
2018-12-11T05:46:33.977Z,99007.66
2018-12-11T05:49:03.864Z,99129.27
2018-12-11T05:51:34.362Z,99130.70
2018-12-11T05:54:04.090Z,99127.16
2018-12-11T05:56:33.982Z,99132.16
2018-12-11T05:59:04.404Z,99150.56
2018-12-11T06:01:33.942Z,99135.75
2018-12-11T06:04:03.514Z,99139.25
2018-12-11T06:06:33.662Z,99142.59
2018-12-11T06:09:03.912Z,98900.66
2018-12-11T06:11:33.406Z,99127.12
2018-12-11T06:14:03.290Z,99119.59
2018-12-11T06:16:33.094Z,99127.02
2018-12-11T06:21:37.266Z,99131.75
2018-12-11T06:24:07.229Z,99118.53
2018-12-11T06:26:36.739Z,99148.85
2018-12-11T06:29:08.084Z,99146.09
2018-12-11T06:31:37.596Z,99152.36
2018-12-11T06:34:07.202Z,99149.01
2018-12-11T06:36:37.034Z,99080.66
2018-12-11T06:39:07.640Z,99157.03
2018-12-11T06:41:37.267Z,98956.77
2018-12-11T06:44:07.175Z,99160.53
2018-12-11T06:46:36.839Z,99157.42
2018-12-11T06:49:07.292Z,99162.55
2018-12-11T06:51:37.334Z,99167.30
2018-12-11T06:54:07.410Z,99165.48
2018-12-11T06:56:37.022Z,99170.01
2018-12-11T06:59:07.475Z,99138.63
2018-12-11T07:01:37.426Z,99171.09
2018-12-11T07:04:07.575Z,99172.77
2018-12-11T07:06:37.809Z,99174.94
2018-12-11T07:09:08.342Z,99182.41
2018-12-11T07:11:37.874Z,99176.70
2018-12-11T07:14:08.334Z,99188.70
2018-12-11T07:16:37.805Z,99181.78
2018-12-11T07:19:07.784Z,99191.22
2018-12-11T07:21:38.382Z,99189.99
2018-12-11T07:24:08.467Z,99188.37
2018-12-11T07:26:38.090Z,99199.55
2018-12-11T07:29:08.606Z,99162.75
2018-12-11T07:31:38.607Z,99199.06
2018-12-11T07:34:08.154Z,99196.31
2018-12-11T07:36:38.173Z,99197.88
2018-12-11T07:39:08.389Z,99201.42
2018-12-11T07:41:38.430Z,99206.58
2018-12-11T07:44:08.842Z,99194.98
2018-12-11T07:46:38.934Z,99205.79
2018-12-11T07:49:08.982Z,99097.09
2018-12-11T07:51:38.826Z,99204.48
2018-12-11T07:54:09.023Z,99211.33
2018-12-11T07:56:38.551Z,99199.91
2018-12-11T07:59:08.343Z,99133.22
2018-12-11T08:01:37.863Z,99200.90
2018-12-11T08:04:08.002Z,99205.47
2018-12-11T08:06:37.818Z,99199.84
2018-12-11T08:09:09.100Z,99201.81
2018-12-11T08:11:38.966Z,99202.99
2018-12-11T08:14:08.725Z,99183.20
2018-12-11T08:16:38.751Z,99213.25
2018-12-11T08:19:09.435Z,99210.02
2018-12-11T08:21:39.348Z,99170.48
2018-12-11T08:24:09.292Z,99211.05
2018-12-11T08:26:39.375Z,99214.52
2018-12-11T08:29:09.970Z,99225.13
2018-12-11T08:31:40.052Z,99221.45
2018-12-11T08:34:09.585Z,99214.15
2018-12-11T08:36:39.372Z,99219.82
2018-12-11T08:39:09.166Z,99235.12
2018-12-11T08:41:38.695Z,99221.31
2018-12-11T08:44:08.503Z,99229.81
2018-12-11T08:46:38.124Z,99225.67
2018-12-11T08:49:07.704Z,99228.20
2018-12-11T08:51:37.535Z,99233.11
2018-12-11T08:54:08.583Z,99242.91
2018-12-11T08:56:38.787Z,99239.63
2018-12-11T08:59:08.562Z,99239.91
2018-12-11T09:01:38.110Z,99232.58
2018-12-11T09:04:08.003Z,99245.81
2018-12-11T09:06:37.919Z,99245.81
2018-12-11T09:09:08.323Z,99250.50
2018-12-11T09:11:37.835Z,99176.77
2018-12-11T09:14:08.270Z,99250.75
2018-12-11T09:16:37.818Z,99250.52
2018-12-11T09:19:07.323Z,99212.12
2018-12-11T09:21:37.246Z,99249.45
2018-12-11T09:24:07.187Z,99249.16
2018-12-11T09:26:37.250Z,99247.66
2018-12-11T09:29:07.580Z,99250.76
2018-12-11T09:31:37.586Z,99239.91
2018-12-11T09:34:07.101Z,99245.20
2018-12-11T09:36:36.858Z,99242.62
2018-12-11T09:39:08.108Z,99239.97
2018-12-11T09:41:37.914Z,99241.73
2018-12-11T09:44:08.706Z,99247.50
2018-12-11T09:46:38.934Z,99245.58
2018-12-11T09:49:09.351Z,99248.48
2018-12-11T09:51:39.349Z,99213.45
2018-12-11T09:54:09.561Z,99243.27
2018-12-11T09:56:39.772Z,99240.66
2018-12-11T09:59:09.770Z,99236.28
2018-12-11T10:01:39.795Z,99236.45
2018-12-11T10:04:11.267Z,99236.48
2018-12-11T10:06:40.883Z,99228.06
2018-12-11T10:09:11.246Z,99236.50
2018-12-11T10:11:41.434Z,99227.43
2018-12-11T10:14:11.698Z,99234.33
2018-12-11T10:16:41.510Z,99234.64
2018-12-11T10:19:11.686Z,99239.89
2018-12-11T10:21:41.946Z,99240.88
2018-12-11T10:24:12.308Z,99234.34
2018-12-11T10:26:43.176Z,99238.02
2018-12-11T10:29:13.506Z,99237.58
2018-12-11T10:31:43.030Z,99240.43
2018-12-11T10:34:13.171Z,99215.95
2018-12-11T10:36:43.119Z,99241.23
2018-12-11T10:39:12.739Z,99238.02
2018-12-11T10:41:42.330Z,99236.45
2018-12-11T10:44:12.127Z,99243.55
2018-12-11T10:46:42.270Z,99242.45
2018-12-11T10:49:12.240Z,99237.43
2018-12-11T10:51:43.334Z,99253.70
2018-12-11T10:54:13.489Z,99225.02
2018-12-11T10:56:43.010Z,99229.05
2018-12-11T10:59:12.871Z,99242.45
2018-12-11T11:01:47.710Z,99236.48
2018-12-11T11:04:17.700Z,99281.39
2018-12-11T11:06:47.293Z,99245.81
2018-12-11T11:09:18.255Z,99240.14
2018-12-11T11:11:48.630Z,99247.48
2018-12-11T11:14:18.176Z,99250.53
2018-12-11T11:16:48.354Z,99252.50
2018-12-11T11:19:18.330Z,99251.23
2018-12-11T11:21:48.814Z,99246.44
2018-12-11T11:24:18.987Z,99249.69
2018-12-11T11:26:48.802Z,99252.30
2018-12-11T11:29:18.313Z,99262.30
2018-12-11T11:31:47.832Z,99255.39
2018-12-11T11:34:18.222Z,99256.48
2018-12-11T11:36:48.461Z,99257.14
2018-12-11T11:39:18.462Z,99262.70
2018-12-11T11:41:48.234Z,99253.55
2018-12-11T11:44:19.102Z,99254.77
2018-12-11T11:46:49.190Z,99253.83
2018-12-11T11:49:19.458Z,99263.75
2018-12-11T11:51:48.978Z,99256.74
2018-12-11T11:54:19.580Z,99257.23
2018-12-11T11:56:49.983Z,99261.43
2018-12-11T11:59:19.507Z,99265.02
2018-12-11T12:05:10.292Z,99284.18
2018-12-11T12:07:39.861Z,99257.89
2018-12-11T12:10:11.606Z,99261.22
2018-12-11T12:12:41.872Z,99258.08
2018-12-11T12:15:12.122Z,99256.72
2018-12-11T12:17:41.601Z,99258.05
2018-12-11T12:20:11.573Z,99267.27
2018-12-11T12:22:41.058Z,99267.13
2018-12-11T12:25:10.547Z,99264.17
2018-12-11T12:27:40.365Z,99277.34
2018-12-11T12:30:10.371Z,99268.75
2018-12-11T12:32:39.973Z,99269.30
2018-12-11T12:35:09.760Z,99269.30
2018-12-11T12:37:39.285Z,99269.06
2018-12-11T12:40:08.806Z,99277.03
2018-12-11T12:42:38.625Z,99260.34
2018-12-11T12:45:08.186Z,99278.28
2018-12-11T12:47:37.653Z,99246.51
2018-12-11T12:50:07.535Z,99242.99
2018-12-11T12:52:37.018Z,99286.50
2018-12-11T12:55:06.622Z,99290.84
2018-12-11T12:57:36.585Z,99293.34
2018-12-11T13:00:07.932Z,99295.48
2018-12-11T13:02:37.726Z,99293.45
2018-12-11T13:05:07.569Z,99339.38
2018-12-11T13:07:37.097Z,99294.78
2018-12-11T13:10:07.247Z,99288.09
2018-12-11T13:12:36.982Z,99295.72
2018-12-11T13:15:08.741Z,99245.46
2018-12-11T13:17:38.594Z,99279.06
2018-12-11T13:20:09.793Z,99281.77
2018-12-11T13:22:39.681Z,99286.01
2018-12-11T13:25:09.821Z,99280.88
2018-12-11T13:27:39.385Z,99278.67
2018-12-11T13:30:09.553Z,99277.13
2018-12-11T13:32:39.112Z,99283.25
2018-12-11T13:35:09.133Z,99286.17
2018-12-11T13:37:39.368Z,99242.21
2018-12-11T13:40:09.032Z,99279.77
2018-12-11T13:42:38.669Z,99274.38
2018-12-11T13:45:08.725Z,99286.84
2018-12-11T13:47:38.218Z,99285.08
2018-12-11T13:50:07.764Z,99285.96
2018-12-11T13:52:38.382Z,99296.45
2018-12-11T13:55:08.070Z,99287.59
2018-12-11T13:57:37.638Z,99289.97
2018-12-11T14:00:07.810Z,99258.16
2018-12-11T14:02:37.393Z,99296.94
2018-12-11T14:05:07.145Z,99304.44
2018-12-11T14:07:37.088Z,99298.92
2018-12-11T14:10:07.096Z,99308.39
2018-12-11T14:12:36.687Z,99309.67
2018-12-11T14:15:08.038Z,99325.08
2018-12-11T14:17:39.091Z,99316.45
2018-12-11T14:20:08.864Z,99315.67
2018-12-11T14:22:38.770Z,99311.20
2018-12-11T14:25:08.675Z,99221.34
2018-12-11T14:27:38.224Z,99276.09
2018-12-11T14:30:11.200Z,99278.70
2018-12-11T14:32:39.671Z,99315.83
2018-12-11T14:35:09.462Z,99319.75
2018-12-11T14:37:39.269Z,99318.97
2018-12-11T14:40:09.561Z,99327.14
2018-12-11T14:42:39.101Z,99321.05
2018-12-11T14:45:09.478Z,99247.00
2018-12-11T14:47:39.095Z,99328.96
2018-12-11T14:50:09.673Z,99321.44
2018-12-11T14:52:39.494Z,99326.36
2018-12-11T14:55:09.493Z,99320.69
2018-12-11T14:57:39.066Z,99321.72
2018-12-11T15:00:10.441Z,99326.64
2018-12-11T15:02:40.169Z,99320.30
2018-12-11T15:05:09.767Z,99324.64
2018-12-11T15:07:39.840Z,99272.72
2018-12-11T15:10:11.871Z,99332.41
2018-12-11T15:12:41.532Z,99328.71
2018-12-11T15:15:11.898Z,99313.88
2018-12-11T15:17:41.978Z,99354.28
2018-12-11T15:20:11.715Z,99327.17
2018-12-11T15:22:41.854Z,99286.12
2018-12-11T15:25:11.345Z,99321.39
2018-12-11T15:27:40.841Z,99233.18
2018-12-11T15:30:11.397Z,99379.35
2018-12-11T15:32:40.891Z,99325.80
2018-12-11T15:35:10.470Z,99334.08
2018-12-11T15:37:40.241Z,99334.56
2018-12-11T15:40:10.491Z,99332.55
2018-12-11T15:42:40.046Z,99330.63
2018-12-11T15:45:09.950Z,99334.22
2018-12-11T15:47:39.499Z,99333.63
2018-12-11T15:50:09.437Z,99333.13
2018-12-11T15:52:39.305Z,99302.50
2018-12-11T15:55:08.906Z,99342.78
2018-12-11T15:57:38.580Z,99338.49
2018-12-11T16:00:10.832Z,99319.12
2018-12-11T16:02:40.539Z,99340.86
2018-12-11T16:05:10.559Z,99343.02
2018-12-11T16:07:40.485Z,99281.83
2018-12-11T16:10:10.402Z,99370.05
2018-12-11T16:12:39.915Z,99312.39
2018-12-11T16:15:10.070Z,99348.58
2018-12-11T16:17:39.613Z,99346.42
2018-12-11T16:20:09.726Z,99347.80
2018-12-11T16:22:39.699Z,99348.97
2018-12-11T16:25:09.618Z,99355.63
2018-12-11T16:27:40.674Z,99354.45
2018-12-11T16:30:10.582Z,99354.65
2018-12-11T16:32:40.234Z,99334.96
2018-12-11T16:35:09.786Z,99318.39
2018-12-11T16:37:39.797Z,99356.17
2018-12-11T16:40:09.379Z,99357.55
2018-12-11T16:42:38.958Z,99390.69
2018-12-11T16:45:09.110Z,99361.66
2018-12-11T16:47:38.964Z,99359.06
2018-12-11T16:50:08.709Z,99357.96
2018-12-11T16:52:38.622Z,99363.28
2018-12-11T16:55:08.290Z,99367.06
2018-12-11T16:57:37.905Z,99366.28
2018-12-11T17:00:08.858Z,99368.59
2018-12-11T17:02:38.660Z,99374.31
2018-12-11T17:05:08.266Z,99367.42
2018-12-11T17:07:38.374Z,99370.77
2018-12-11T17:10:08.621Z,99453.13
2018-12-11T17:12:38.377Z,99371.01
2018-12-11T17:15:14.205Z,99353.75
2018-12-11T17:17:43.918Z,99374.94
2018-12-11T17:20:14.569Z,99377.47
2018-12-11T17:22:44.090Z,99378.84
2018-12-11T17:25:13.630Z,99376.87
2018-12-11T17:27:43.570Z,99386.68
2018-12-11T17:30:13.280Z,99387.47
2018-12-11T17:32:43.514Z,99388.89
2018-12-11T17:35:13.634Z,99390.81
2018-12-11T17:37:43.441Z,99387.86
2018-12-11T17:40:13.049Z,99337.56
2018-12-11T17:45:21.566Z,99394.95
2018-12-11T17:47:51.350Z,99394.80
2018-12-11T17:50:20.898Z,99393.80
2018-12-11T17:52:50.591Z,99392.08
2018-12-11T17:55:20.406Z,99396.02
2018-12-11T17:57:50.061Z,99376.03
2018-12-11T18:00:19.649Z,99395.78
2018-12-11T18:02:49.810Z,99391.87
2018-12-11T18:05:19.401Z,99391.64
2018-12-11T18:07:49.082Z,99395.00
2018-12-11T18:10:18.892Z,99394.02
2018-12-11T18:12:48.427Z,99398.37
2018-12-11T18:15:18.062Z,99401.69
2018-12-11T18:17:47.970Z,99401.30
2018-12-11T18:20:17.515Z,99425.72
2018-12-11T18:22:47.085Z,99395.19
2018-12-11T18:25:17.529Z,99375.44
2018-12-11T18:27:47.512Z,99387.51
2018-12-11T18:30:17.806Z,99401.53
2018-12-11T18:32:47.660Z,99413.84
2018-12-11T18:35:18.105Z,99442.50
2018-12-11T18:37:47.574Z,99412.60
2018-12-11T18:40:17.659Z,99410.05
2018-12-11T18:42:47.234Z,99397.39
2018-12-11T18:45:16.922Z,99413.84
2018-12-11T18:47:49.956Z,99415.26
2018-12-11T18:50:21.317Z,99420.77
2018-12-11T18:52:46.261Z,99433.80
2018-12-11T18:55:16.066Z,99424.55
2018-12-11T18:57:46.825Z,99428.68
2018-12-11T19:00:16.599Z,99434.59
2018-12-11T19:02:46.886Z,99455.03
2018-12-11T19:05:16.651Z,99438.69
2018-12-11T19:07:46.447Z,99301.23
2018-12-11T19:10:16.730Z,99434.95
2018-12-11T19:12:46.322Z,99443.45
2018-12-11T19:15:15.826Z,99446.25
2018-12-11T19:17:45.691Z,99446.84
2018-12-11T19:20:15.286Z,99447.67
2018-12-11T19:22:44.841Z,99444.13
2018-12-11T19:25:18.803Z,99448.27
2018-12-11T19:27:48.810Z,99381.21
2018-12-11T19:30:18.997Z,99440.27
2018-12-11T19:32:48.675Z,99444.05
2018-12-11T19:35:18.391Z,99442.72
2018-12-11T19:37:48.953Z,99435.75
2018-12-11T19:40:18.450Z,99441.77
2018-12-11T19:42:48.537Z,99439.80
2018-12-11T19:45:18.545Z,99435.43
2018-12-11T19:47:48.098Z,99439.80
2018-12-11T19:50:17.734Z,99441.38
2018-12-11T19:52:47.656Z,99444.34
2018-12-11T19:55:18.689Z,99440.05
2018-12-11T19:57:49.831Z,99444.57
2018-12-11T20:00:20.021Z,99440.05
2018-12-11T20:02:51.635Z,99441.27
2018-12-11T20:05:21.258Z,99445.05
2018-12-11T20:07:51.530Z,99408.92
2018-12-11T20:10:25.598Z,99448.83
2018-12-11T20:12:55.232Z,99390.34
2018-12-11T20:15:25.727Z,99452.14
2018-12-11T20:17:55.775Z,99447.41
2018-12-11T20:20:28.139Z,99447.09
2018-12-11T20:22:57.773Z,99445.33
2018-12-11T20:25:28.318Z,99443.79
2018-12-11T20:27:57.854Z,99449.85
2018-12-11T20:30:27.362Z,99436.36
2018-12-11T20:32:57.904Z,99452.84
2018-12-11T20:35:28.057Z,99449.46
2018-12-11T20:37:57.982Z,99458.55
2018-12-11T20:40:27.879Z,99461.15
2018-12-11T20:42:58.114Z,99467.69
2018-12-11T20:45:27.606Z,99468.98
2018-12-11T20:47:58.103Z,99476.03
2018-12-11T20:50:27.745Z,99472.49
2018-12-11T20:52:57.285Z,99474.06
2018-12-11T20:55:27.207Z,99471.11
2018-12-11T20:57:56.694Z,99474.49
2018-12-11T21:00:27.003Z,99474.53
2018-12-11T21:02:56.900Z,99474.14
2018-12-11T21:05:26.986Z,99474.77
2018-12-11T21:07:56.562Z,99472.38
2018-12-11T21:10:26.406Z,99478.70
2018-12-11T21:12:56.686Z,99471.03
2018-12-11T21:15:26.282Z,99435.04
2018-12-11T21:17:56.343Z,99469.30
2018-12-11T21:20:26.508Z,99469.92
2018-12-11T21:22:56.070Z,99469.53
2018-12-11T21:25:25.877Z,99474.26
2018-12-11T21:27:55.393Z,99476.85
2018-12-11T21:30:24.879Z,99483.31
2018-12-11T21:32:54.764Z,99398.50
2018-12-11T21:35:24.239Z,99483.52
2018-12-11T21:37:53.719Z,99478.62
2018-12-11T21:40:23.952Z,99485.88
2018-12-11T21:42:54.058Z,99483.12
2018-12-11T21:45:24.056Z,99487.09
2018-12-11T21:47:54.309Z,99461.84
2018-12-11T21:50:24.446Z,99483.12
2018-12-11T21:52:53.977Z,99486.11
2018-12-11T21:55:28.623Z,99483.74
2018-12-11T21:57:58.702Z,99447.42
2018-12-11T22:00:28.338Z,99406.63
2018-12-11T22:02:58.208Z,99495.27
2018-12-11T22:05:27.717Z,99493.30
2018-12-11T22:07:57.733Z,99489.05
2018-12-11T22:10:27.566Z,99474.35
2018-12-11T22:12:57.042Z,99493.73
2018-12-11T22:15:27.853Z,99495.34
2018-12-11T22:17:58.123Z,99493.77
2018-12-11T22:20:27.716Z,99509.28
2018-12-11T22:22:57.219Z,99510.45
2018-12-11T22:25:27.745Z,99498.69
2018-12-11T22:27:57.313Z,99445.03
2018-12-11T22:30:26.812Z,99509.31
2018-12-11T22:32:56.757Z,99503.25
2018-12-11T22:35:26.726Z,99512.30
2018-12-11T22:37:56.777Z,99516.86
2018-12-11T22:40:27.262Z,99509.98
2018-12-11T22:42:57.489Z,99513.72
2018-12-11T22:45:27.483Z,99510.44
2018-12-11T22:47:58.022Z,99510.44
2018-12-11T22:50:27.558Z,99514.19
2018-12-11T22:52:57.681Z,99508.28
2018-12-11T22:55:28.276Z,99511.47
2018-12-11T22:57:57.783Z,99509.53
2018-12-11T23:00:27.305Z,99513.47
2018-12-11T23:02:57.067Z,99430.06
2018-12-11T23:05:27.633Z,99515.87
2018-12-11T23:07:57.188Z,99519.25
2018-12-11T23:10:27.019Z,99521.61
2018-12-11T23:12:57.118Z,99525.73
2018-12-11T23:15:27.398Z,99522.20
2018-12-11T23:17:57.218Z,99482.01
2018-12-11T23:20:26.651Z,99524.75
2018-12-11T23:22:56.228Z,99525.55
2018-12-11T23:25:26.658Z,99531.05
2018-12-11T23:27:56.885Z,99532.00
2018-12-11T23:30:25.962Z,99536.76
2018-12-11T23:32:56.246Z,99539.31
2018-12-11T23:35:26.509Z,99538.95
2018-12-11T23:37:56.061Z,99525.56
2018-12-11T23:40:26.446Z,99537.81
2018-12-11T23:42:55.990Z,99547.97
2018-12-11T23:45:26.264Z,99537.74
2018-12-11T23:47:56.287Z,99542.86
2018-12-11T23:50:26.237Z,99543.68
2018-12-11T23:52:56.571Z,99543.87
2018-12-11T23:55:26.885Z,99547.06
2018-12-11T23:57:56.420Z,99545.69
